sensor_id;sensor_type;location;lat;lon;timestamp;P1;durP1;ratioP1;P2;durP2;ratioP2
5349;SDS011;2697;42.144;24.794;2023-04-03T00:01:12;6.53;;;1.73;;
5349;SDS011;2697;42.144;24.794;2023-04-03T00:03:37;7.00;;;2.03;;
5349;SDS011;2697;42.144;24.794;2023-04-03T00:06:03;4.17;;;2.00;;
5349;SDS011;2697;42.144;24.794;2023-04-03T00:08:31;4.23;;;1.90;;
5349;SDS011;2697;42.144;24.794;2023-04-03T00:10:57;2.20;;;1.40;;
5349;SDS011;2697;42.144;24.794;2023-04-03T00:13:23;4.80;;;1.77;;
5349;SDS011;2697;42.144;24.794;2023-04-03T00:15:50;5.50;;;1.80;;
5349;SDS011;2697;42.144;24.794;2023-04-03T00:18:16;2.20;;;1.63;;
5349;SDS011;2697;42.144;24.794;2023-04-03T00:20:41;2.33;;;1.40;;
5349;SDS011;2697;42.144;24.794;2023-04-03T00:23:08;5.50;;;1.70;;
5349;SDS011;2697;42.144;24.794;2023-04-03T00:25:34;7.03;;;1.80;;
5349;SDS011;2697;42.144;24.794;2023-04-03T00:27:59;5.87;;;1.87;;
5349;SDS011;2697;42.144;24.794;2023-04-03T00:30:25;3.07;;;1.70;;
5349;SDS011;2697;42.144;24.794;2023-04-03T00:32:51;9.23;;;1.80;;
5349;SDS011;2697;42.144;24.794;2023-04-03T00:35:17;6.20;;;1.90;;
5349;SDS011;2697;42.144;24.794;2023-04-03T00:37:44;1.70;;;1.47;;
5349;SDS011;2697;42.144;24.794;2023-04-03T00:40:10;7.43;;;2.90;;
5349;SDS011;2697;42.144;24.794;2023-04-03T00:42:37;3.43;;;1.70;;
5349;SDS011;2697;42.144;24.794;2023-04-03T00:47:28;4.40;;;1.90;;
5349;SDS011;2697;42.144;24.794;2023-04-03T00:49:55;3.90;;;1.50;;
5349;SDS011;2697;42.144;24.794;2023-04-03T00:52:23;9.37;;;2.67;;
5349;SDS011;2697;42.144;24.794;2023-04-03T00:54:53;3.37;;;1.70;;
5349;SDS011;2697;42.144;24.794;2023-04-03T00:57:22;22.60;;;2.00;;
5349;SDS011;2697;42.144;24.794;2023-04-03T00:59:50;3.67;;;1.73;;
5349;SDS011;2697;42.144;24.794;2023-04-03T01:02:20;4.40;;;1.57;;
5349;SDS011;2697;42.144;24.794;2023-04-03T01:04:46;4.17;;;1.93;;
5349;SDS011;2697;42.144;24.794;2023-04-03T01:09:40;2.27;;;1.53;;
5349;SDS011;2697;42.144;24.794;2023-04-03T01:12:16;4.50;;;2.47;;
5349;SDS011;2697;42.144;24.794;2023-04-03T01:14:46;3.40;;;1.80;;
5349;SDS011;2697;42.144;24.794;2023-04-03T01:20:02;3.60;;;2.20;;
5349;SDS011;2697;42.144;24.794;2023-04-03T01:22:35;5.50;;;2.30;;
5349;SDS011;2697;42.144;24.794;2023-04-03T01:25:26;2.57;;;2.03;;
5349;SDS011;2697;42.144;24.794;2023-04-03T01:27:52;5.83;;;2.00;;
5349;SDS011;2697;42.144;24.794;2023-04-03T01:30:18;10.00;;;2.03;;
5349;SDS011;2697;42.144;24.794;2023-04-03T01:32:45;5.53;;;2.47;;
5349;SDS011;2697;42.144;24.794;2023-04-03T01:35:11;4.10;;;2.40;;
5349;SDS011;2697;42.144;24.794;2023-04-03T01:37:36;7.03;;;3.03;;
5349;SDS011;2697;42.144;24.794;2023-04-03T01:40:02;6.93;;;3.10;;
5349;SDS011;2697;42.144;24.794;2023-04-03T01:42:28;11.87;;;3.50;;
5349;SDS011;2697;42.144;24.794;2023-04-03T01:44:54;9.93;;;3.37;;
5349;SDS011;2697;42.144;24.794;2023-04-03T01:47:20;10.60;;;3.83;;
5349;SDS011;2697;42.144;24.794;2023-04-03T01:49:45;16.93;;;3.60;;
5349;SDS011;2697;42.144;24.794;2023-04-03T01:52:10;5.87;;;3.50;;
5349;SDS011;2697;42.144;24.794;2023-04-03T01:54:36;8.90;;;3.83;;
5349;SDS011;2697;42.144;24.794;2023-04-03T01:57:01;5.90;;;3.47;;
5349;SDS011;2697;42.144;24.794;2023-04-03T01:59:27;5.53;;;3.07;;
5349;SDS011;2697;42.144;24.794;2023-04-03T02:01:53;9.90;;;4.13;;
5349;SDS011;2697;42.144;24.794;2023-04-03T02:04:18;8.10;;;2.63;;
5349;SDS011;2697;42.144;24.794;2023-04-03T02:06:44;11.73;;;3.47;;
5349;SDS011;2697;42.144;24.794;2023-04-03T02:09:10;7.00;;;4.37;;
5349;SDS011;2697;42.144;24.794;2023-04-03T02:11:35;11.60;;;6.93;;
5349;SDS011;2697;42.144;24.794;2023-04-03T02:14:01;18.63;;;5.23;;
5349;SDS011;2697;42.144;24.794;2023-04-03T02:16:26;7.70;;;4.87;;
5349;SDS011;2697;42.144;24.794;2023-04-03T02:18:51;8.60;;;4.43;;
5349;SDS011;2697;42.144;24.794;2023-04-03T02:21:17;11.57;;;4.30;;
5349;SDS011;2697;42.144;24.794;2023-04-03T02:23:42;13.70;;;4.60;;
5349;SDS011;2697;42.144;24.794;2023-04-03T02:26:09;7.30;;;4.57;;
5349;SDS011;2697;42.144;24.794;2023-04-03T02:28:36;15.87;;;4.60;;
5349;SDS011;2697;42.144;24.794;2023-04-03T02:31:03;11.13;;;4.67;;
5349;SDS011;2697;42.144;24.794;2023-04-03T02:33:29;11.80;;;6.07;;
5349;SDS011;2697;42.144;24.794;2023-04-03T02:35:55;10.67;;;4.80;;
5349;SDS011;2697;42.144;24.794;2023-04-03T02:38:22;13.53;;;4.53;;
5349;SDS011;2697;42.144;24.794;2023-04-03T02:40:48;11.20;;;4.50;;
5349;SDS011;2697;42.144;24.794;2023-04-03T02:43:14;10.20;;;3.90;;
5349;SDS011;2697;42.144;24.794;2023-04-03T02:45:39;7.13;;;4.20;;
5349;SDS011;2697;42.144;24.794;2023-04-03T02:48:05;6.73;;;3.70;;
5349;SDS011;2697;42.144;24.794;2023-04-03T02:50:31;14.73;;;4.37;;
5349;SDS011;2697;42.144;24.794;2023-04-03T02:52:56;15.47;;;4.43;;
5349;SDS011;2697;42.144;24.794;2023-04-03T02:55:21;8.90;;;5.30;;
5349;SDS011;2697;42.144;24.794;2023-04-03T02:57:47;7.17;;;4.73;;
5349;SDS011;2697;42.144;24.794;2023-04-03T03:00:12;7.23;;;4.17;;
5349;SDS011;2697;42.144;24.794;2023-04-03T03:02:39;14.30;;;4.53;;
5349;SDS011;2697;42.144;24.794;2023-04-03T03:05:05;11.13;;;4.83;;
5349;SDS011;2697;42.144;24.794;2023-04-03T03:07:30;9.40;;;4.10;;
5349;SDS011;2697;42.144;24.794;2023-04-03T03:09:56;15.00;;;5.37;;
5349;SDS011;2697;42.144;24.794;2023-04-03T03:12:21;7.00;;;3.53;;
5349;SDS011;2697;42.144;24.794;2023-04-03T03:14:48;12.20;;;4.23;;
5349;SDS011;2697;42.144;24.794;2023-04-03T03:17:13;9.43;;;4.23;;
5349;SDS011;2697;42.144;24.794;2023-04-03T03:19:39;9.23;;;4.67;;
5349;SDS011;2697;42.144;24.794;2023-04-03T03:22:04;14.13;;;4.33;;
5349;SDS011;2697;42.144;24.794;2023-04-03T03:24:30;14.20;;;4.73;;
5349;SDS011;2697;42.144;24.794;2023-04-03T03:26:55;8.83;;;4.63;;
5349;SDS011;2697;42.144;24.794;2023-04-03T03:29:21;14.23;;;6.33;;
5349;SDS011;2697;42.144;24.794;2023-04-03T03:31:46;8.80;;;4.87;;
5349;SDS011;2697;42.144;24.794;2023-04-03T03:34:13;10.00;;;5.23;;
5349;SDS011;2697;42.144;24.794;2023-04-03T03:36:38;20.97;;;6.07;;
5349;SDS011;2697;42.144;24.794;2023-04-03T03:39:04;40.63;;;14.00;;
5349;SDS011;2697;42.144;24.794;2023-04-03T03:41:30;14.67;;;6.83;;
5349;SDS011;2697;42.144;24.794;2023-04-03T03:43:56;16.90;;;6.20;;
5349;SDS011;2697;42.144;24.794;2023-04-03T03:46:21;24.37;;;4.83;;
5349;SDS011;2697;42.144;24.794;2023-04-03T03:48:47;10.47;;;4.80;;
5349;SDS011;2697;42.144;24.794;2023-04-03T03:51:12;25.73;;;6.37;;
5349;SDS011;2697;42.144;24.794;2023-04-03T03:53:37;20.60;;;6.47;;
5349;SDS011;2697;42.144;24.794;2023-04-03T03:56:03;15.70;;;4.77;;
5349;SDS011;2697;42.144;24.794;2023-04-03T03:58:29;20.57;;;5.77;;
5349;SDS011;2697;42.144;24.794;2023-04-03T04:00:55;10.37;;;5.20;;
5349;SDS011;2697;42.144;24.794;2023-04-03T04:03:20;16.17;;;5.20;;
5349;SDS011;2697;42.144;24.794;2023-04-03T04:05:46;17.67;;;5.03;;
5349;SDS011;2697;42.144;24.794;2023-04-03T04:08:11;15.10;;;6.80;;
5349;SDS011;2697;42.144;24.794;2023-04-03T04:10:37;19.13;;;6.50;;
5349;SDS011;2697;42.144;24.794;2023-04-03T04:13:02;19.73;;;6.80;;
5349;SDS011;2697;42.144;24.794;2023-04-03T04:15:28;18.10;;;6.43;;
5349;SDS011;2697;42.144;24.794;2023-04-03T04:17:54;12.10;;;5.70;;
5349;SDS011;2697;42.144;24.794;2023-04-03T04:20:19;22.20;;;6.30;;
5349;SDS011;2697;42.144;24.794;2023-04-03T04:22:44;15.13;;;4.90;;
5349;SDS011;2697;42.144;24.794;2023-04-03T04:25:10;11.20;;;5.50;;
5349;SDS011;2697;42.144;24.794;2023-04-03T04:27:35;13.03;;;5.63;;
5349;SDS011;2697;42.144;24.794;2023-04-03T04:30:02;9.63;;;4.20;;
5349;SDS011;2697;42.144;24.794;2023-04-03T04:32:28;13.37;;;6.20;;
5349;SDS011;2697;42.144;24.794;2023-04-03T04:34:54;41.33;;;5.83;;
5349;SDS011;2697;42.144;24.794;2023-04-03T04:37:19;32.77;;;5.43;;
5349;SDS011;2697;42.144;24.794;2023-04-03T04:39:45;26.50;;;9.77;;
5349;SDS011;2697;42.144;24.794;2023-04-03T04:42:10;40.53;;;8.40;;
5349;SDS011;2697;42.144;24.794;2023-04-03T04:44:38;41.70;;;12.33;;
5349;SDS011;2697;42.144;24.794;2023-04-03T04:47:03;23.80;;;7.50;;
5349;SDS011;2697;42.144;24.794;2023-04-03T04:49:29;28.77;;;6.20;;
5349;SDS011;2697;42.144;24.794;2023-04-03T04:51:54;35.63;;;6.63;;
5349;SDS011;2697;42.144;24.794;2023-04-03T04:54:20;28.63;;;5.80;;
5349;SDS011;2697;42.144;24.794;2023-04-03T04:56:46;18.47;;;5.13;;
5349;SDS011;2697;42.144;24.794;2023-04-03T04:59:11;31.43;;;4.83;;
5349;SDS011;2697;42.144;24.794;2023-04-03T05:01:37;20.27;;;5.70;;
5349;SDS011;2697;42.144;24.794;2023-04-03T05:04:02;17.40;;;5.50;;
5349;SDS011;2697;42.144;24.794;2023-04-03T05:06:28;22.00;;;6.03;;
5349;SDS011;2697;42.144;24.794;2023-04-03T05:08:56;22.20;;;6.00;;
5349;SDS011;2697;42.144;24.794;2023-04-03T05:11:22;17.17;;;4.97;;
5349;SDS011;2697;42.144;24.794;2023-04-03T05:13:47;21.37;;;5.80;;
5349;SDS011;2697;42.144;24.794;2023-04-03T05:16:13;9.73;;;4.70;;
5349;SDS011;2697;42.144;24.794;2023-04-03T05:18:38;13.80;;;5.73;;
5349;SDS011;2697;42.144;24.794;2023-04-03T05:21:03;20.40;;;5.60;;
5349;SDS011;2697;42.144;24.794;2023-04-03T05:23:29;12.10;;;6.10;;
5349;SDS011;2697;42.144;24.794;2023-04-03T05:25:55;19.57;;;5.50;;
5349;SDS011;2697;42.144;24.794;2023-04-03T05:28:20;18.83;;;5.57;;
5349;SDS011;2697;42.144;24.794;2023-04-03T05:30:45;12.60;;;5.27;;
5349;SDS011;2697;42.144;24.794;2023-04-03T05:33:18;16.77;;;4.90;;
5349;SDS011;2697;42.144;24.794;2023-04-03T05:35:43;21.40;;;5.70;;
5349;SDS011;2697;42.144;24.794;2023-04-03T05:38:09;10.27;;;4.43;;
5349;SDS011;2697;42.144;24.794;2023-04-03T05:40:34;9.70;;;5.10;;
5349;SDS011;2697;42.144;24.794;2023-04-03T05:42:59;24.43;;;5.83;;
5349;SDS011;2697;42.144;24.794;2023-04-03T05:45:25;21.57;;;6.43;;
5349;SDS011;2697;42.144;24.794;2023-04-03T05:47:50;28.03;;;7.77;;
5349;SDS011;2697;42.144;24.794;2023-04-03T05:50:15;39.17;;;7.63;;
5349;SDS011;2697;42.144;24.794;2023-04-03T05:52:42;19.20;;;8.83;;
5349;SDS011;2697;42.144;24.794;2023-04-03T05:55:10;26.33;;;6.83;;
5349;SDS011;2697;42.144;24.794;2023-04-03T05:57:36;23.90;;;5.43;;
5349;SDS011;2697;42.144;24.794;2023-04-03T06:00:03;23.33;;;5.57;;
5349;SDS011;2697;42.144;24.794;2023-04-03T06:02:30;13.67;;;5.97;;
5349;SDS011;2697;42.144;24.794;2023-04-03T06:04:56;17.10;;;5.47;;
5349;SDS011;2697;42.144;24.794;2023-04-03T06:07:22;23.80;;;6.27;;
5349;SDS011;2697;42.144;24.794;2023-04-03T06:09:53;18.10;;;5.63;;
5349;SDS011;2697;42.144;24.794;2023-04-03T06:12:19;11.67;;;6.40;;
5349;SDS011;2697;42.144;24.794;2023-04-03T06:14:44;21.67;;;5.83;;
5349;SDS011;2697;42.144;24.794;2023-04-03T06:17:10;20.73;;;7.00;;
5349;SDS011;2697;42.144;24.794;2023-04-03T06:19:37;27.87;;;7.80;;
5349;SDS011;2697;42.144;24.794;2023-04-03T06:22:03;31.83;;;7.63;;
5349;SDS011;2697;42.144;24.794;2023-04-03T06:24:28;17.33;;;6.60;;
5349;SDS011;2697;42.144;24.794;2023-04-03T06:26:55;29.27;;;7.27;;
5349;SDS011;2697;42.144;24.794;2023-04-03T06:29:22;24.40;;;7.10;;
5349;SDS011;2697;42.144;24.794;2023-04-03T06:31:48;18.70;;;7.03;;
5349;SDS011;2697;42.144;24.794;2023-04-03T06:34:14;14.40;;;6.33;;
5349;SDS011;2697;42.144;24.794;2023-04-03T06:36:40;15.20;;;5.80;;
5349;SDS011;2697;42.144;24.794;2023-04-03T06:39:06;12.20;;;5.80;;
5349;SDS011;2697;42.144;24.794;2023-04-03T06:41:31;9.43;;;4.40;;
5349;SDS011;2697;42.144;24.794;2023-04-03T06:43:58;16.63;;;5.80;;
5349;SDS011;2697;42.144;24.794;2023-04-03T06:46:23;19.23;;;4.57;;
5349;SDS011;2697;42.144;24.794;2023-04-03T06:48:50;17.70;;;5.77;;
5349;SDS011;2697;42.144;24.794;2023-04-03T06:51:20;10.43;;;4.30;;
5349;SDS011;2697;42.144;24.794;2023-04-03T06:53:48;11.03;;;5.80;;
5349;SDS011;2697;42.144;24.794;2023-04-03T06:56:15;22.30;;;5.43;;
5349;SDS011;2697;42.144;24.794;2023-04-03T06:58:41;9.03;;;5.03;;
5349;SDS011;2697;42.144;24.794;2023-04-03T07:01:08;14.90;;;5.27;;
5349;SDS011;2697;42.144;24.794;2023-04-03T07:03:35;17.30;;;6.10;;
5349;SDS011;2697;42.144;24.794;2023-04-03T07:06:01;32.03;;;6.80;;
5349;SDS011;2697;42.144;24.794;2023-04-03T07:08:27;40.63;;;8.20;;
5349;SDS011;2697;42.144;24.794;2023-04-03T07:10:53;24.13;;;7.70;;
5349;SDS011;2697;42.144;24.794;2023-04-03T07:13:19;29.87;;;8.70;;
5349;SDS011;2697;42.144;24.794;2023-04-03T07:15:45;39.03;;;9.20;;
5349;SDS011;2697;42.144;24.794;2023-04-03T07:18:10;24.83;;;8.47;;
5349;SDS011;2697;42.144;24.794;2023-04-03T07:20:36;22.30;;;10.10;;
5349;SDS011;2697;42.144;24.794;2023-04-03T07:23:01;15.33;;;8.10;;
5349;SDS011;2697;42.144;24.794;2023-04-03T07:25:27;34.83;;;10.33;;
5349;SDS011;2697;42.144;24.794;2023-04-03T07:27:53;36.00;;;9.00;;
5349;SDS011;2697;42.144;24.794;2023-04-03T07:30:19;18.63;;;7.60;;
5349;SDS011;2697;42.144;24.794;2023-04-03T07:32:45;16.77;;;7.47;;
5349;SDS011;2697;42.144;24.794;2023-04-03T07:35:11;17.83;;;7.70;;
5349;SDS011;2697;42.144;24.794;2023-04-03T07:37:37;12.53;;;6.87;;
5349;SDS011;2697;42.144;24.794;2023-04-03T07:40:02;17.50;;;6.07;;
5349;SDS011;2697;42.144;24.794;2023-04-03T07:42:29;16.20;;;7.87;;
5349;SDS011;2697;42.144;24.794;2023-04-03T07:44:55;27.60;;;6.80;;
5349;SDS011;2697;42.144;24.794;2023-04-03T07:47:21;24.37;;;6.40;;
5349;SDS011;2697;42.144;24.794;2023-04-03T07:49:47;25.97;;;7.57;;
5349;SDS011;2697;42.144;24.794;2023-04-03T07:52:13;15.77;;;7.33;;
5349;SDS011;2697;42.144;24.794;2023-04-03T07:54:40;23.00;;;7.90;;
5349;SDS011;2697;42.144;24.794;2023-04-03T07:57:06;20.50;;;6.30;;
5349;SDS011;2697;42.144;24.794;2023-04-03T07:59:31;13.63;;;6.47;;
5349;SDS011;2697;42.144;24.794;2023-04-03T08:01:57;24.97;;;6.87;;
5349;SDS011;2697;42.144;24.794;2023-04-03T08:04:22;22.50;;;6.60;;
5349;SDS011;2697;42.144;24.794;2023-04-03T08:06:47;20.17;;;7.27;;
5349;SDS011;2697;42.144;24.794;2023-04-03T08:09:14;17.77;;;7.40;;
5349;SDS011;2697;42.144;24.794;2023-04-03T08:11:40;13.50;;;6.60;;
5349;SDS011;2697;42.144;24.794;2023-04-03T08:14:06;10.20;;;4.90;;
5349;SDS011;2697;42.144;24.794;2023-04-03T08:16:32;17.30;;;6.07;;
5349;SDS011;2697;42.144;24.794;2023-04-03T08:18:57;12.63;;;5.10;;
5349;SDS011;2697;42.144;24.794;2023-04-03T08:21:22;9.40;;;4.87;;
5349;SDS011;2697;42.144;24.794;2023-04-03T08:23:48;11.83;;;4.60;;
5349;SDS011;2697;42.144;24.794;2023-04-03T08:26:16;4.60;;;2.80;;
5349;SDS011;2697;42.144;24.794;2023-04-03T08:28:43;10.17;;;3.47;;
5349;SDS011;2697;42.144;24.794;2023-04-03T08:31:10;8.43;;;2.53;;
5349;SDS011;2697;42.144;24.794;2023-04-03T08:33:38;8.47;;;2.97;;
5349;SDS011;2697;42.144;24.794;2023-04-03T08:36:05;6.53;;;2.33;;
5349;SDS011;2697;42.144;24.794;2023-04-03T08:38:32;3.37;;;2.17;;
5349;SDS011;2697;42.144;24.794;2023-04-03T08:41:15;6.53;;;2.97;;
5349;SDS011;2697;42.144;24.794;2023-04-03T08:49:10;3.43;;;2.23;;
5349;SDS011;2697;42.144;24.794;2023-04-03T08:51:45;5.57;;;3.00;;
5349;SDS011;2697;42.144;24.794;2023-04-03T08:55:15;6.90;;;3.40;;
5349;SDS011;2697;42.144;24.794;2023-04-03T08:57:14;4.90;;;2.93;;
5349;SDS011;2697;42.144;24.794;2023-04-03T08:59:41;7.30;;;3.70;;
5349;SDS011;2697;42.144;24.794;2023-04-03T09:02:26;10.17;;;3.73;;
5349;SDS011;2697;42.144;24.794;2023-04-03T09:04:53;9.83;;;3.97;;
5349;SDS011;2697;42.144;24.794;2023-04-03T09:07:22;62.33;;;6.33;;
5349;SDS011;2697;42.144;24.794;2023-04-03T09:09:59;12.43;;;4.70;;
5349;SDS011;2697;42.144;24.794;2023-04-03T09:12:29;10.07;;;3.97;;
5349;SDS011;2697;42.144;24.794;2023-04-03T09:17:36;12.43;;;3.70;;
5349;SDS011;2697;42.144;24.794;2023-04-03T09:22:56;22.60;;;2.37;;
5349;SDS011;2697;42.144;24.794;2023-04-03T09:25:31;11.30;;;2.70;;
5349;SDS011;2697;42.144;24.794;2023-04-03T09:28:00;9.83;;;2.63;;
5349;SDS011;2697;42.144;24.794;2023-04-03T09:30:26;3.40;;;2.27;;
5349;SDS011;2697;42.144;24.794;2023-04-03T09:32:54;11.07;;;1.90;;
5349;SDS011;2697;42.144;24.794;2023-04-03T09:37:48;15.43;;;5.10;;
5349;SDS011;2697;42.144;24.794;2023-04-03T09:43:19;29.67;;;3.13;;
5349;SDS011;2697;42.144;24.794;2023-04-03T09:45:48;5.00;;;2.43;;
5349;SDS011;2697;42.144;24.794;2023-04-03T09:58:40;8.63;;;4.17;;
5349;SDS011;2697;42.144;24.794;2023-04-03T10:06:44;6.50;;;3.17;;
5349;SDS011;2697;42.144;24.794;2023-04-03T10:09:31;9.00;;;3.50;;
5349;SDS011;2697;42.144;24.794;2023-04-03T10:12:08;5.13;;;3.00;;
5349;SDS011;2697;42.144;24.794;2023-04-03T10:22:42;16.63;;;7.77;;
5349;SDS011;2697;42.144;24.794;2023-04-03T10:28:01;24.67;;;9.97;;
5349;SDS011;2697;42.144;24.794;2023-04-03T10:33:30;32.13;;;9.20;;
5349;SDS011;2697;42.144;24.794;2023-04-03T10:47:44;21.23;;;7.07;;
5349;SDS011;2697;42.144;24.794;2023-04-03T10:50:43;16.03;;;6.40;;
5349;SDS011;2697;42.144;24.794;2023-04-03T10:59:13;17.10;;;5.77;;
5349;SDS011;2697;42.144;24.794;2023-04-03T11:01:52;9.33;;;5.13;;
5349;SDS011;2697;42.144;24.794;2023-04-03T11:04:21;9.93;;;4.03;;
5349;SDS011;2697;42.144;24.794;2023-04-03T11:06:57;9.67;;;4.37;;
5349;SDS011;2697;42.144;24.794;2023-04-03T11:09:27;19.90;;;9.40;;
5349;SDS011;2697;42.144;24.794;2023-04-03T11:12:20;7.53;;;4.73;;
5349;SDS011;2697;42.144;24.794;2023-04-03T11:14:55;10.37;;;4.10;;
5349;SDS011;2697;42.144;24.794;2023-04-03T11:17:26;5.93;;;3.00;;
5349;SDS011;2697;42.144;24.794;2023-04-03T11:20:06;3.00;;;2.70;;
5349;SDS011;2697;42.144;24.794;2023-04-03T11:25:26;4.40;;;2.53;;
5349;SDS011;2697;42.144;24.794;2023-04-03T11:27:58;4.57;;;2.30;;
5349;SDS011;2697;42.144;24.794;2023-04-03T11:35:56;7.67;;;3.20;;
5349;SDS011;2697;42.144;24.794;2023-04-03T11:38:30;6.90;;;3.10;;
5349;SDS011;2697;42.144;24.794;2023-04-03T11:41:02;6.20;;;3.33;;
5349;SDS011;2697;42.144;24.794;2023-04-03T11:43:30;8.20;;;3.33;;
5349;SDS011;2697;42.144;24.794;2023-04-03T11:46:06;4.27;;;3.00;;
5349;SDS011;2697;42.144;24.794;2023-04-03T11:53:36;10.30;;;4.00;;
5349;SDS011;2697;42.144;24.794;2023-04-03T12:01:53;8.63;;;4.30;;
5349;SDS011;2697;42.144;24.794;2023-04-03T12:04:24;8.57;;;4.20;;
5349;SDS011;2697;42.144;24.794;2023-04-03T12:06:53;8.17;;;3.70;;
5349;SDS011;2697;42.144;24.794;2023-04-03T12:11:56;8.47;;;3.80;;
5349;SDS011;2697;42.144;24.794;2023-04-03T12:14:24;9.70;;;3.70;;
5349;SDS011;2697;42.144;24.794;2023-04-03T12:16:55;7.63;;;3.57;;
5349;SDS011;2697;42.144;24.794;2023-04-03T12:19:38;9.40;;;4.00;;
5349;SDS011;2697;42.144;24.794;2023-04-03T12:22:13;6.03;;;3.37;;
5349;SDS011;2697;42.144;24.794;2023-04-03T12:24:45;12.37;;;4.00;;
5349;SDS011;2697;42.144;24.794;2023-04-03T12:32:43;4.70;;;3.80;;
5349;SDS011;2697;42.144;24.794;2023-04-03T12:35:21;8.57;;;4.50;;
5349;SDS011;2697;42.144;24.794;2023-04-03T12:41:04;16.63;;;4.27;;
5349;SDS011;2697;42.144;24.794;2023-04-03T12:46:43;7.10;;;4.13;;
5349;SDS011;2697;42.144;24.794;2023-04-03T12:51:55;9.73;;;5.00;;
5349;SDS011;2697;42.144;24.794;2023-04-03T12:54:35;17.80;;;6.40;;
5349;SDS011;2697;42.144;24.794;2023-04-03T12:57:21;18.13;;;6.33;;
5349;SDS011;2697;42.144;24.794;2023-04-03T12:59:49;10.03;;;5.80;;
5349;SDS011;2697;42.144;24.794;2023-04-03T13:02:36;14.03;;;6.10;;
5349;SDS011;2697;42.144;24.794;2023-04-03T13:05:07;13.20;;;6.70;;
5349;SDS011;2697;42.144;24.794;2023-04-03T13:07:35;13.03;;;6.50;;
5349;SDS011;2697;42.144;24.794;2023-04-03T13:12:32;18.33;;;6.93;;
5349;SDS011;2697;42.144;24.794;2023-04-03T13:15:00;15.37;;;7.60;;
5349;SDS011;2697;42.144;24.794;2023-04-03T13:17:41;27.33;;;7.77;;
5349;SDS011;2697;42.144;24.794;2023-04-03T13:20:11;19.60;;;7.13;;
5349;SDS011;2697;42.144;24.794;2023-04-03T13:22:40;14.87;;;8.63;;
5349;SDS011;2697;42.144;24.794;2023-04-03T13:25:36;15.80;;;8.03;;
5349;SDS011;2697;42.144;24.794;2023-04-03T13:28:10;28.00;;;10.03;;
5349;SDS011;2697;42.144;24.794;2023-04-03T13:30:38;14.87;;;8.13;;
5349;SDS011;2697;42.144;24.794;2023-04-03T13:33:17;21.67;;;6.97;;
5349;SDS011;2697;42.144;24.794;2023-04-03T13:35:47;21.40;;;9.90;;
5349;SDS011;2697;42.144;24.794;2023-04-03T13:38:29;19.13;;;8.37;;
5349;SDS011;2697;42.144;24.794;2023-04-03T13:40:59;20.37;;;10.53;;
5349;SDS011;2697;42.144;24.794;2023-04-03T13:43:29;22.43;;;13.10;;
5349;SDS011;2697;42.144;24.794;2023-04-03T13:46:00;17.30;;;10.83;;
5349;SDS011;2697;42.144;24.794;2023-04-03T13:48:50;15.20;;;10.80;;
5349;SDS011;2697;42.144;24.794;2023-04-03T13:53:46;15.30;;;9.30;;
5349;SDS011;2697;42.144;24.794;2023-04-03T13:56:34;15.70;;;9.87;;
5349;SDS011;2697;42.144;24.794;2023-04-03T14:04:29;21.23;;;8.90;;
5349;SDS011;2697;42.144;24.794;2023-04-03T14:06:57;19.53;;;10.30;;
5349;SDS011;2697;42.144;24.794;2023-04-03T14:09:24;19.97;;;7.80;;
5349;SDS011;2697;42.144;24.794;2023-04-03T14:11:53;16.73;;;10.40;;
5349;SDS011;2697;42.144;24.794;2023-04-03T14:14:23;14.83;;;10.30;;
5349;SDS011;2697;42.144;24.794;2023-04-03T14:16:54;18.20;;;9.23;;
5349;SDS011;2697;42.144;24.794;2023-04-03T14:19:31;15.43;;;9.93;;
5349;SDS011;2697;42.144;24.794;2023-04-03T14:21:58;28.63;;;12.37;;
5349;SDS011;2697;42.144;24.794;2023-04-03T14:24:26;19.90;;;11.30;;
5349;SDS011;2697;42.144;24.794;2023-04-03T14:26:53;24.07;;;16.90;;
5349;SDS011;2697;42.144;24.794;2023-04-03T14:29:20;24.07;;;15.33;;
5349;SDS011;2697;42.144;24.794;2023-04-03T14:31:47;23.37;;;14.43;;
5349;SDS011;2697;42.144;24.794;2023-04-03T14:34:14;21.50;;;13.63;;
5349;SDS011;2697;42.144;24.794;2023-04-03T14:36:40;22.00;;;13.53;;
5349;SDS011;2697;42.144;24.794;2023-04-03T14:39:08;20.23;;;12.37;;
5349;SDS011;2697;42.144;24.794;2023-04-03T14:41:37;20.33;;;11.70;;
5349;SDS011;2697;42.144;24.794;2023-04-03T14:44:02;25.47;;;14.13;;
5349;SDS011;2697;42.144;24.794;2023-04-03T14:46:29;27.67;;;13.60;;
5349;SDS011;2697;42.144;24.794;2023-04-03T14:49:01;25.20;;;14.03;;
5349;SDS011;2697;42.144;24.794;2023-04-03T14:51:27;25.87;;;13.50;;
5349;SDS011;2697;42.144;24.794;2023-04-03T14:53:52;24.97;;;14.67;;
5349;SDS011;2697;42.144;24.794;2023-04-03T14:56:22;39.23;;;16.27;;
5349;SDS011;2697;42.144;24.794;2023-04-03T14:58:52;35.53;;;14.40;;
5349;SDS011;2697;42.144;24.794;2023-04-03T15:01:21;29.60;;;16.20;;
5349;SDS011;2697;42.144;24.794;2023-04-03T15:03:47;26.13;;;13.97;;
5349;SDS011;2697;42.144;24.794;2023-04-03T15:06:13;29.43;;;14.97;;
5349;SDS011;2697;42.144;24.794;2023-04-03T15:08:40;27.97;;;16.57;;
5349;SDS011;2697;42.144;24.794;2023-04-03T15:11:07;27.27;;;13.77;;
5349;SDS011;2697;42.144;24.794;2023-04-03T15:13:33;26.23;;;14.37;;
5349;SDS011;2697;42.144;24.794;2023-04-03T15:15:59;25.50;;;15.40;;
5349;SDS011;2697;42.144;24.794;2023-04-03T15:18:25;31.00;;;17.40;;
5349;SDS011;2697;42.144;24.794;2023-04-03T15:20:53;46.03;;;16.47;;
5349;SDS011;2697;42.144;24.794;2023-04-03T15:23:18;32.50;;;16.20;;
5349;SDS011;2697;42.144;24.794;2023-04-03T15:25:45;28.53;;;15.40;;
5349;SDS011;2697;42.144;24.794;2023-04-03T15:28:23;32.60;;;14.30;;
5349;SDS011;2697;42.144;24.794;2023-04-03T15:30:53;23.70;;;12.47;;
5349;SDS011;2697;42.144;24.794;2023-04-03T15:33:18;16.10;;;9.00;;
5349;SDS011;2697;42.144;24.794;2023-04-03T15:35:44;18.77;;;7.27;;
5349;SDS011;2697;42.144;24.794;2023-04-03T15:38:09;31.27;;;6.67;;
5349;SDS011;2697;42.144;24.794;2023-04-03T15:40:35;11.00;;;6.00;;
5349;SDS011;2697;42.144;24.794;2023-04-03T15:43:01;12.60;;;5.40;;
5349;SDS011;2697;42.144;24.794;2023-04-03T15:45:28;12.07;;;6.07;;
5349;SDS011;2697;42.144;24.794;2023-04-03T15:47:55;7.83;;;5.23;;
5349;SDS011;2697;42.144;24.794;2023-04-03T15:50:21;20.83;;;5.97;;
5349;SDS011;2697;42.144;24.794;2023-04-03T15:52:48;12.87;;;5.53;;
5349;SDS011;2697;42.144;24.794;2023-04-03T15:55:18;11.63;;;5.80;;
5349;SDS011;2697;42.144;24.794;2023-04-03T15:57:45;13.80;;;7.87;;
5349;SDS011;2697;42.144;24.794;2023-04-03T16:00:10;23.13;;;8.53;;
5349;SDS011;2697;42.144;24.794;2023-04-03T16:02:36;22.20;;;9.63;;
5349;SDS011;2697;42.144;24.794;2023-04-03T16:05:02;21.30;;;9.43;;
5349;SDS011;2697;42.144;24.794;2023-04-03T16:07:27;20.43;;;9.70;;
5349;SDS011;2697;42.144;24.794;2023-04-03T16:09:53;17.90;;;7.83;;
5349;SDS011;2697;42.144;24.794;2023-04-03T16:12:18;19.10;;;8.37;;
5349;SDS011;2697;42.144;24.794;2023-04-03T16:14:44;22.37;;;8.93;;
5349;SDS011;2697;42.144;24.794;2023-04-03T16:17:09;32.40;;;8.70;;
5349;SDS011;2697;42.144;24.794;2023-04-03T16:19:35;14.90;;;8.50;;
5349;SDS011;2697;42.144;24.794;2023-04-03T16:22:00;18.10;;;9.33;;
5349;SDS011;2697;42.144;24.794;2023-04-03T16:24:26;13.73;;;8.33;;
5349;SDS011;2697;42.144;24.794;2023-04-03T16:26:52;18.63;;;8.37;;
5349;SDS011;2697;42.144;24.794;2023-04-03T16:29:18;21.43;;;8.20;;
5349;SDS011;2697;42.144;24.794;2023-04-03T16:31:43;21.20;;;8.50;;
5349;SDS011;2697;42.144;24.794;2023-04-03T16:34:09;17.43;;;8.70;;
5349;SDS011;2697;42.144;24.794;2023-04-03T16:36:34;0.50;;;0.50;;
5349;SDS011;2697;42.144;24.794;2023-04-03T16:39:02;0.50;;;0.50;;
5349;SDS011;2697;42.144;24.794;2023-04-03T16:41:28;0.50;;;0.50;;
5349;SDS011;2697;42.144;24.794;2023-04-03T16:43:53;0.50;;;0.50;;
5349;SDS011;2697;42.144;24.794;2023-04-03T16:46:19;0.50;;;0.50;;
5349;SDS011;2697;42.144;24.794;2023-04-03T16:48:44;0.50;;;0.50;;
5349;SDS011;2697;42.144;24.794;2023-04-03T16:51:11;0.50;;;0.50;;
5349;SDS011;2697;42.144;24.794;2023-04-03T16:53:37;0.50;;;0.50;;